Terminal Aerodrome Forecast
Issued by NWS

Current Version | Previous Version | Graphics & Text | Print | Product List | Glossary On
Versions: 1 2 3 4 5 6 7 8 9 10 11 12 13 14 15 16 17 18 19 20 21 22 23 24 25
090
FTUS41 KRNK 232320
TAFLWB
TAF
KLWB 232320Z 2400/2424 13004KT P6SM SKC
     FM240900 VRB03KT P6SM BKN090
     FM241700 21006KT P6SM SCT060
     FM242300 00000KT P6SM SCT120=

USA.gov is the U.S. government's official web portal to all federal, state and local government web resources and services.